Time;durP1;ratioP1;P1;durP2;ratioP2;P2;SDS_P1;SDS_P2;PMS_P1;PMS_P2;Temp;Humidity;BMP_temperature;BMP_pressure;BME280_temperature;BME280_humidity;BME280_pressure;Samples;Min_cycle;Max_cycle;Signal;HPM_P1;HPM_P2
2022/03/19 00:01:56;;;;;;;0.93;0.93;;;;;;;9.33;56.94;103717.84;5200725;28;20044;-79
2022/03/19 00:04:26;;;;;;;1.42;1.33;;;;;;;9.46;55.67;103711.19;5201503;28;20041;-78
2022/03/19 00:06:57;;;;;;;2.38;1.42;;;;;;;9.55;55.00;103707.88;5198710;28;20026;-78
2022/03/19 00:09:28;;;;;;;0.90;0.90;;;;;;;9.55;55.00;103702.66;5181682;28;20574;-78
2022/03/19 00:11:59;;;;;;;0.85;0.85;;;;;;;9.59;54.79;103705.38;5165244;28;20137;-78
2022/03/19 00:14:29;;;;;;;1.05;1.05;;;;;;;9.59;54.99;103707.13;5166150;28;20044;-79
2022/03/19 00:17:00;;;;;;;1.38;0.82;;;;;;;9.55;54.50;103705.25;5188849;28;20029;-79
2022/03/19 00:19:30;;;;;;;1.13;1.13;;;;;;;9.54;54.71;103708.75;5207779;28;20026;-78
2022/03/19 00:22:01;;;;;;;0.57;0.57;;;;;;;9.58;54.77;103710.59;5218491;28;20117;-79
2022/03/19 00:24:34;;;;;;;1.58;1.48;;;;;;;9.60;54.60;103703.66;5188098;28;20034;-79
2022/03/19 00:27:05;;;;;;;;;;;;;;;9.60;54.88;103709.78;5181087;28;20025;-80
2022/03/19 00:29:35;;;;;;;0.40;0.40;;;;;;;9.63;54.34;103703.72;5190123;28;19939;-81
2022/03/19 00:32:06;;;;;;;0.55;0.55;;;;;;;9.59;54.82;103709.75;5174184;28;20031;-79
2022/03/19 00:34:37;;;;;;;1.90;1.50;;;;;;;9.52;54.39;103716.56;5202322;28;20765;-79
2022/03/19 00:37:07;;;;;;;0.57;0.57;;;;;;;9.55;54.69;103718.38;5186638;28;20496;-80
2022/03/19 00:39:38;;;;;;;0.63;0.63;;;;;;;9.55;54.39;103718.38;5201850;28;20083;-79
2022/03/19 00:42:08;;;;;;;1.05;1.05;;;;;;;9.49;54.84;103710.34;5199981;28;20033;-80
2022/03/19 00:44:39;;;;;;;0.90;0.90;;;;;;;9.32;55.06;103704.69;5173895;28;20737;-79
2022/03/19 00:47:10;;;;;;;0.77;0.77;;;;;;;9.37;54.55;103703.97;5200640;28;20161;-79
2022/03/19 00:49:41;;;;;;;0.55;0.55;;;;;;;9.24;55.20;103701.88;5189185;28;20293;-79
2022/03/19 00:52:11;;;;;;;0.68;0.68;;;;;;;9.31;55.16;103703.78;5196093;28;20025;-79
2022/03/19 00:54:42;;;;;;;0.40;0.40;;;;;;;9.28;55.23;103693.25;5202390;28;20033;-80
2022/03/19 00:57:12;;;;;;;0.50;0.50;;;;;;;9.31;55.10;103695.94;5201652;28;20541;-79
2022/03/19 00:59:43;;;;;;;0.68;0.68;;;;;;;9.28;54.88;103693.25;5195551;28;20616;-80
2022/03/19 01:02:14;;;;;;;0.95;0.95;;;;;;;9.08;56.29;103698.84;5199436;28;20113;-79
2022/03/19 01:04:44;;;;;;;1.33;1.27;;;;;;;8.83;58.87;103689.44;5210125;28;20029;-79
2022/03/19 01:07:15;;;;;;;0.98;0.98;;;;;;;8.78;57.13;103694.53;5184471;28;20025;-79
2022/03/19 01:09:45;;;;;;;0.47;0.47;;;;;;;8.80;57.60;103694.56;5199440;28;20025;-79
2022/03/19 01:12:16;;;;;;;0.28;0.28;;;;;;;8.63;57.57;103687.13;5187577;28;20061;-79
2022/03/19 01:14:46;;;;;;;0.80;0.80;;;;;;;8.65;57.07;103681.94;5185098;28;20060;-79
2022/03/19 01:17:17;;;;;;;0.68;0.68;;;;;;;8.61;57.61;103682.69;5203067;28;20331;-79
2022/03/19 01:19:53;;;;;;;0.73;0.73;;;;;;;8.63;57.59;103676.66;5203161;28;20029;-79
2022/03/19 01:22:26;;;;;;;0.45;0.45;;;;;;;8.73;57.03;103687.41;5200413;28;20371;-79
2022/03/19 01:24:59;;;;;;;0.30;0.30;;;;;;;8.71;57.21;103684.75;5225836;28;20110;-79
2022/03/19 01:27:30;;;;;;;0.30;0.30;;;;;;;8.80;56.52;103671.88;5202479;28;20377;-79
2022/03/19 01:30:02;;;;;;;0.47;0.47;;;;;;;8.87;56.35;103679.94;5180939;28;20436;-79
2022/03/19 01:32:35;;;;;;;0.80;0.80;;;;;;;8.84;56.09;103677.22;5201901;28;20051;-79
2022/03/19 01:35:06;;;;;;;0.50;0.50;;;;;;;8.88;56.06;103682.59;5187398;28;20036;-79
2022/03/19 01:37:38;;;;;;;0.80;0.80;;;;;;;8.81;56.31;103683.25;5209150;28;20045;-79
2022/03/19 01:40:10;;;;;;;11.95;1.75;;;;;;;8.78;56.17;103676.22;5206763;28;20022;-79
2022/03/19 01:42:45;;;;;;;1.15;1.13;;;;;;;8.74;56.43;103676.97;5171409;28;20041;-79
2022/03/19 01:45:19;;;;;;;0.75;0.75;;;;;;;8.83;56.18;103671.09;5200421;28;20315;-79
2022/03/19 01:47:50;;;;;;;;;;;;;;;8.86;56.02;103672.91;5203620;28;20041;-79
2022/03/19 01:50:22;;;;;;;0.43;0.43;;;;;;;8.87;56.62;103678.19;5195391;28;19971;-79
2022/03/19 01:52:54;;;;;;;0.40;0.40;;;;;;;8.90;55.79;103674.75;5207572;28;20823;-79
2022/03/19 01:55:27;;;;;;;1.35;1.25;;;;;;;8.90;55.67;103665.19;5201003;28;20029;-79
2022/03/19 01:57:58;;;;;;;2.78;1.73;;;;;;;8.92;55.26;103667.84;5208018;28;20125;-79
2022/03/19 02:00:29;;;;;;;3.10;1.23;;;;;;;8.91;56.02;103659.13;5204560;28;20583;-79
2022/03/19 02:03:00;;;;;;;0.75;0.75;;;;;;;8.89;55.49;103660.78;5226995;28;20037;-79
2022/03/19 02:05:31;;;;;;;3.30;0.75;;;;;;;8.87;55.62;103665.09;5191718;28;20030;-79
2022/03/19 02:08:02;;;;;;;0.80;0.80;;;;;;;8.86;55.38;103652.84;5193387;28;20052;-79
2022/03/19 02:10:34;;;;;;;5.18;1.40;;;;;;;8.79;55.80;103656.16;5178145;28;20036;-79
2022/03/19 02:13:04;;;;;;;0.47;0.47;;;;;;;8.78;55.39;103655.28;5188620;28;20381;-79
2022/03/19 02:15:35;;;;;;;1.90;1.15;;;;;;;8.77;55.45;103650.88;5204341;28;20033;-79
2022/03/19 02:18:05;;;;;;;3.13;1.17;;;;;;;8.79;56.07;103645.66;5188277;28;20044;-79
2022/03/19 02:20:36;;;;;;;3.58;1.55;;;;;;;8.71;55.98;103653.34;5197029;28;20033;-79
2022/03/19 02:26:08;;;;;;;8.85;2.47;;;;;;;8.59;55.92;103645.13;5196074;28;20089;-79
2022/03/19 02:28:38;;;;;;;1.08;0.50;;;;;;;8.54;56.25;103654.59;5219988;28;20125;-79
2022/03/19 02:31:09;;;;;;;5.25;0.95;;;;;;;8.57;56.38;103649.41;5183700;28;20040;-79
2022/03/19 02:33:39;;;;;;;2.83;1.58;;;;;;;8.51;55.66;103639.69;5200628;28;20053;-78
2022/03/19 02:36:10;;;;;;;1.17;1.17;;;;;;;8.49;56.14;103646.59;5166447;28;20057;-78
2022/03/19 02:38:41;;;;;;;1.70;0.95;;;;;;;8.51;56.56;103650.16;5197310;28;20052;-78
2022/03/19 02:41:11;;;;;;;1.33;1.27;;;;;;;8.53;56.00;103643.22;5176126;28;20101;-78
2022/03/19 02:43:42;;;;;;;1.55;1.05;;;;;;;8.46;55.57;103638.63;5216500;28;20099;-78
2022/03/19 02:46:12;;;;;;;0.30;0.30;;;;;;;8.49;55.57;103637.00;5161346;28;20045;-79
2022/03/19 02:48:43;;;;;;;0.73;0.73;;;;;;;8.46;56.14;103639.53;5205647;28;20052;-78
2022/03/19 02:51:13;;;;;;;0.50;0.50;;;;;;;8.45;55.69;103639.47;5199779;28;20037;-78
2022/03/19 02:53:44;;;;;;;1.70;1.02;;;;;;;8.43;55.46;103628.94;5195474;28;20033;-79
2022/03/19 02:56:14;;;;;;;0.70;0.70;;;;;;;8.45;56.26;103631.59;5164497;28;20034;-79
2022/03/19 02:58:45;;;;;;;0.40;0.40;;;;;;;8.45;55.97;103629.00;5197613;28;20437;-79
2022/03/19 03:01:15;;;;;;;2.42;0.68;;;;;;;8.44;56.06;103625.50;5182338;28;20064;-78
2022/03/19 03:03:48;;;;;;;1.33;1.27;;;;;;;8.42;55.40;103623.69;5183176;28;20037;-79
2022/03/19 03:06:20;;;;;;;0.77;0.77;;;;;;;8.42;55.79;103613.22;5183226;28;20037;-78
2022/03/19 03:08:51;;;;;;;1.00;1.00;;;;;;;8.37;55.97;103613.09;5221952;28;20053;-79
2022/03/19 03:11:21;;;;;;;0.77;0.77;;;;;;;8.28;56.18;103610.19;5218006;28;20034;-79
2022/03/19 03:13:52;;;;;;;0.70;0.70;;;;;;;8.34;56.06;103605.13;5166460;28;20044;-79
2022/03/19 03:16:22;;;;;;;0.93;0.93;;;;;;;8.30;55.87;103603.28;5194042;28;20036;-78
2022/03/19 03:18:57;;;;;;;0.60;0.60;;;;;;;8.30;55.97;103609.41;5194255;28;20037;-79
2022/03/19 03:21:28;;;;;;;0.82;0.82;;;;;;;8.28;56.02;103608.47;5206314;28;20037;-79
2022/03/19 03:23:59;;;;;;;1.45;1.20;;;;;;;8.24;56.45;103605.72;5204035;28;20033;-78
2022/03/19 03:26:30;;;;;;;2.25;2.05;;;;;;;8.21;56.02;103610.88;5184931;28;20041;-79
2022/03/19 03:29:01;;;;;;;0.57;0.57;;;;;;;8.22;56.28;103612.66;5210935;28;20033;-78
2022/03/19 03:31:33;;;;;;;1.33;1.23;;;;;;;8.18;55.58;103609.94;5183631;28;20057;-78
2022/03/19 03:34:04;;;;;;;0.80;0.80;;;;;;;8.18;55.96;103609.94;5193952;28;20042;-78
2022/03/19 03:36:35;;;;;;;0.50;0.50;;;;;;;8.15;56.06;103604.59;5181629;28;20722;-79
2022/03/19 03:39:05;;;;;;;0.70;0.70;;;;;;;8.13;56.41;103603.69;5201911;28;20635;-78
2022/03/19 03:41:36;;;;;;;1.55;1.48;;;;;;;8.10;55.93;103605.34;5208378;28;20036;-78
2022/03/19 03:44:06;;;;;;;0.50;0.50;;;;;;;8.02;56.41;103605.09;5222083;28;20140;-79
2022/03/19 03:46:37;;;;;;;0.98;0.82;;;;;;;8.04;56.42;103606.91;5217567;28;20030;-79
2022/03/19 03:49:08;;;;;;;0.50;0.50;;;;;;;7.98;55.81;103603.22;5176591;28;20125;-78
2022/03/19 03:51:38;;;;;;;0.50;0.50;;;;;;;7.96;56.01;103599.69;5162889;28;20038;-80
2022/03/19 03:54:09;;;;;;;0.50;0.50;;;;;;;7.94;56.09;103598.75;5190743;28;20099;-79
2022/03/19 03:56:39;;;;;;;0.50;0.50;;;;;;;7.91;56.26;103603.88;5178462;28;20561;-79
2022/03/19 03:59:10;;;;;;;0.47;0.47;;;;;;;7.88;55.75;103600.34;5196235;28;20453;-79
2022/03/19 04:01:40;;;;;;;0.40;0.40;;;;;;;7.80;56.43;103595.69;5164839;28;20048;-79
2022/03/19 04:04:11;;;;;;;0.57;0.57;;;;;;;7.79;55.84;103600.06;5217149;28;20538;-79
2022/03/19 04:06:41;;;;;;;0.73;0.73;;;;;;;7.65;56.71;103590.88;5195725;28;20049;-79
2022/03/19 04:09:12;;;;;;;0.95;0.95;;;;;;;7.71;56.51;103585.88;5210664;28;20098;-79
2022/03/19 04:11:43;;;;;;;1.13;1.10;;;;;;;7.69;56.17;103592.75;5180726;28;20152;-79
2022/03/19 04:14:13;;;;;;;0.75;0.75;;;;;;;7.66;56.40;103592.66;5195794;28;20099;-79
2022/03/19 04:16:44;;;;;;;1.08;0.80;;;;;;;7.61;56.01;103596.88;5161793;28;20460;-80
2022/03/19 04:19:14;;;;;;;1.15;1.05;;;;;;;7.59;56.88;103593.31;5179367;28;20059;-79
2022/03/19 04:21:45;;;;;;;0.65;0.65;;;;;;;7.52;56.29;103595.72;5217054;28;20057;-79
2022/03/19 04:24:16;;;;;;;0.40;0.40;;;;;;;7.52;56.46;103595.72;5198842;28;20065;-79
2022/03/19 04:26:49;;;;;;;0.85;0.85;;;;;;;7.50;56.24;103592.19;5211503;28;20042;-79
2022/03/19 04:29:20;;;;;;;0.57;0.57;;;;;;;7.52;56.61;103600.09;5204599;28;20094;-79
2022/03/19 04:31:50;;;;;;;1.52;1.42;;;;;;;7.53;56.82;103588.78;5198366;28;20041;-79
2022/03/19 04:34:21;;;;;;;0.70;0.70;;;;;;;7.50;56.86;103591.31;5211870;28;20108;-79
2022/03/19 04:36:52;;;;;;;0.52;0.52;;;;;;;7.47;56.41;103584.25;5180336;28;20091;-79
2022/03/19 04:39:22;;;;;;;1.48;1.38;;;;;;;7.46;56.88;103584.19;5214335;28;20042;-79
2022/03/19 04:41:53;;;;;;;0.80;0.80;;;;;;;7.47;56.62;103586.88;5175715;28;20129;-79
2022/03/19 04:44:23;;;;;;;0.95;0.95;;;;;;;7.41;56.36;103586.66;5170399;28;20041;-79
2022/03/19 04:46:54;;;;;;;0.50;0.50;;;;;;;7.44;56.59;103589.38;5194557;28;20025;-80
2022/03/19 04:49:25;;;;;;;0.93;0.93;;;;;;;7.39;56.45;103584.00;5208820;28;20056;-79
2022/03/19 04:51:56;;;;;;;1.17;1.00;;;;;;;7.40;56.67;103580.56;5198704;28;20463;-79
2022/03/19 04:54:26;;;;;;;0.82;0.82;;;;;;;7.37;56.42;103584.78;5198875;28;20052;-79
2022/03/19 04:56:57;;;;;;;4.03;1.45;;;;;;;7.33;56.93;103577.69;5180360;28;20459;-79
2022/03/19 04:59:28;;;;;;;0.82;0.82;;;;;;;7.32;56.73;103584.66;5201136;28;20044;-79
2022/03/19 05:01:58;;;;;;;0.63;0.63;;;;;;;7.18;56.73;103578.97;5197705;28;20064;-79
2022/03/19 05:04:29;;;;;;;0.93;0.93;;;;;;;7.19;56.69;103578.13;5174231;28;20561;-79
2022/03/19 05:07:00;;;;;;;1.23;1.20;;;;;;;7.16;56.66;103580.63;5181013;28;20042;-79
2022/03/19 05:12:36;;;;;;;0.30;0.30;;;;;;;7.15;56.91;103589.28;5224736;28;20307;-79
2022/03/19 05:15:11;;;;;;;0.70;0.70;;;;;;;7.13;56.82;103591.00;5208238;28;20033;-79
2022/03/19 05:17:43;;;;;;;0.30;0.30;;;;;;;7.04;56.47;103593.28;5174894;28;20042;-79
2022/03/19 05:20:14;;;;;;;3.45;1.80;;;;;;;7.08;57.11;103603.00;5181799;28;20041;-79
2022/03/19 05:22:45;;;;;;;0.40;0.40;;;;;;;7.05;57.04;103588.13;5198367;28;20037;-79
2022/03/19 05:25:15;;;;;;;0.77;0.77;;;;;;;7.02;57.12;103587.13;5185713;28;20040;-80
2022/03/19 05:27:46;;;;;;;0.63;0.63;;;;;;;6.92;56.88;103586.81;5215439;28;20037;-79
2022/03/19 05:30:16;;;;;;;0.82;0.82;;;;;;;6.91;57.07;103587.63;5199172;28;20044;-79
2022/03/19 05:32:47;;;;;;;0.63;0.63;;;;;;;6.92;57.51;103589.41;5181824;28;20041;-79
2022/03/19 05:35:19;;;;;;;0.55;0.55;;;;;;;6.91;57.15;103587.63;5200470;28;20037;-79
2022/03/19 05:37:49;;;;;;;1.05;1.05;;;;;;;6.88;57.70;103594.47;5193536;28;20049;-80
2022/03/19 05:40:20;;;;;;;0.40;0.40;;;;;;;6.88;57.32;103589.25;5217765;28;20448;-79
2022/03/19 05:42:50;;;;;;;0.25;0.25;;;;;;;6.85;57.27;103589.16;5202480;28;20053;-79
2022/03/19 05:45:21;;;;;;;1.25;1.15;;;;;;;6.87;57.37;103595.31;5189290;28;20124;-80
2022/03/19 05:47:52;;;;;;;0.40;0.40;;;;;;;6.80;57.46;103594.22;5197282;28;20116;-79
2022/03/19 05:50:22;;;;;;;0.85;0.85;;;;;;;6.83;57.78;103599.53;5201189;28;20133;-80
2022/03/19 05:52:54;;;;;;;1.75;0.75;;;;;;;6.87;57.86;103604.03;5170447;28;20037;-80
2022/03/19 05:55:24;;;;;;;0.40;0.40;;;;;;;6.87;57.27;103603.13;5190950;28;20126;-80
2022/03/19 05:57:58;;;;;;;0.50;0.50;;;;;;;6.89;57.63;103602.38;5159571;28;20045;-80
2022/03/19 06:00:28;;;;;;;1.02;1.02;;;;;;;6.88;57.72;103603.22;5198748;28;20581;-80
2022/03/19 06:02:59;;;;;;;0.70;0.70;;;;;;;6.88;57.79;103604.91;5202137;28;20045;-80
2022/03/19 06:05:30;;;;;;;0.82;0.82;;;;;;;6.85;57.50;103607.44;5202857;28;20568;-80
2022/03/19 06:08:01;;;;;;;0.40;0.40;;;;;;;6.79;57.63;103610.72;5179143;28;20056;-81
2022/03/19 06:10:35;;;;;;;2.85;1.52;;;;;;;6.72;58.83;103613.94;5179751;28;20396;-80
2022/03/19 06:13:05;;;;;;;9.63;1.88;;;;;;;6.60;59.69;103606.56;5178149;28;20044;-80
2022/03/19 06:15:36;;;;;;;0.40;0.40;;;;;;;6.73;57.94;103610.50;5175863;28;20032;-80
2022/03/19 06:18:07;;;;;;;0.75;0.75;;;;;;;6.64;58.69;103610.19;5166667;28;20041;-80
2022/03/19 06:20:37;;;;;;;0.60;0.60;;;;;;;6.72;57.98;103619.16;5209774;28;20021;-81
2022/03/19 06:23:08;;;;;;;1.50;1.40;;;;;;;6.73;58.24;103605.28;5159452;28;20380;-80
2022/03/19 06:25:38;;;;;;;1.42;1.33;;;;;;;6.72;58.50;103600.91;5195907;28;20124;-80
2022/03/19 06:28:09;;;;;;;0.80;0.80;;;;;;;6.73;58.09;103608.78;5191712;28;20206;-80
2022/03/19 06:30:39;;;;;;;3.30;1.50;;;;;;;6.74;58.83;103607.03;5199363;28;20033;-80
2022/03/19 06:33:12;;;;;;;0.47;0.47;;;;;;;6.73;58.50;103594.84;5179896;28;20543;-80
2022/03/19 06:38:32;;;;;;;4.75;2.47;;;;;;;6.76;59.12;103600.16;5196917;28;20041;-80
2022/03/19 06:41:03;;;;;;;2.03;1.90;;;;;;;6.75;58.80;103598.38;5162633;28;20022;-79
2022/03/19 06:43:33;;;;;;;0.70;0.70;;;;;;;6.76;59.22;103590.63;5206997;28;20041;-79
2022/03/19 06:46:04;;;;;;;0.65;0.65;;;;;;;6.73;58.94;103594.84;5180178;28;20146;-79
2022/03/19 06:48:35;;;;;;;0.73;0.73;;;;;;;6.67;59.45;103594.63;5206930;28;20468;-80
2022/03/19 06:51:05;;;;;;;0.82;0.82;;;;;;;6.69;59.66;103598.16;5164157;28;20052;-79
2022/03/19 06:53:39;;;;;;;1.27;1.17;;;;;;;6.52;61.95;103594.97;5179323;28;20044;-79
2022/03/19 06:56:09;;;;;;;;;;;;;;;6.59;60.70;103597.84;5179355;28;20025;-79
2022/03/19 06:58:41;;;;;;;0.40;0.40;;;;;;;6.59;60.97;103602.19;5200611;28;19924;-79
2022/03/19 07:01:22;;;;;;;0.65;0.65;;;;;;;6.52;63.92;103601.06;5195516;28;20052;-78
2022/03/19 07:03:52;;;;;;;0.60;0.60;;;;;;;6.48;63.08;103601.81;5203042;28;20587;-79
2022/03/19 07:06:32;;;;;;;4.20;1.80;;;;;;;6.59;63.63;103600.44;5178972;28;20032;-82
2022/03/19 07:09:06;;;;;;;1.08;1.08;;;;;;;6.60;62.50;103597.00;5216028;28;20045;-80
2022/03/19 07:11:37;;;;;;;1.35;1.25;;;;;;;6.60;62.67;103594.41;5203994;28;20081;-81
2022/03/19 07:14:08;;;;;;;0.73;0.73;;;;;;;6.54;64.10;103598.50;5187174;28;20145;-81
2022/03/19 07:16:39;;;;;;;0.40;0.40;;;;;;;6.62;63.74;103597.06;5197553;28;20033;-80
2022/03/19 07:19:44;;;;;;;2.47;1.10;;;;;;;6.69;63.50;103603.38;5209492;28;20042;-78
2022/03/19 07:22:14;;;;;;;0.40;0.40;;;;;;;6.82;63.73;103600.38;5298587;22;20160;-80
2022/03/19 07:24:45;;;;;;;0.70;0.70;;;;;;;6.73;65.24;103597.47;5207434;28;20244;-81
2022/03/19 07:27:15;;;;;;;0.45;0.45;;;;;;;6.70;66.76;103599.94;5167443;28;20064;-80
2022/03/19 07:29:47;;;;;;;0.77;0.77;;;;;;;6.73;65.07;103592.25;5174123;28;20045;-81
2022/03/19 07:32:20;;;;;;;1.05;1.05;;;;;;;6.78;66.14;103599.38;5205886;28;20038;-81
2022/03/19 07:34:51;;;;;;;0.75;0.75;;;;;;;6.68;68.04;103593.78;5170913;28;20037;-80
2022/03/19 07:37:22;;;;;;;0.30;0.30;;;;;;;6.80;67.06;103598.53;5180985;28;20188;-80
2022/03/19 07:39:52;;;;;;;1.52;1.15;;;;;;;6.90;65.77;103593.69;5181752;28;20025;-78
2022/03/19 07:42:23;;;;;;;0.60;0.60;;;;;;;7.01;66.67;103591.47;5180958;28;20026;-79
2022/03/19 07:44:53;;;;;;;0.30;0.30;;;;;;;7.07;65.34;103602.13;5177986;28;20026;-80
2022/03/19 07:47:24;;;;;;;1.02;1.02;;;;;;;7.15;65.05;103594.53;5190885;28;20037;-81
2022/03/19 07:49:54;;;;;;;0.50;0.50;;;;;;;7.18;65.13;103596.38;5175928;28;20037;-80
2022/03/19 07:52:28;;;;;;;0.68;0.68;;;;;;;7.16;66.43;103587.59;5193798;28;20463;-80
2022/03/19 07:54:59;;;;;;;0.77;0.77;;;;;;;7.20;66.30;103586.84;5193227;28;20266;-80
2022/03/19 07:57:29;;;;;;;0.63;0.63;;;;;;;7.32;65.50;103586.34;5191028;28;20883;-81
2022/03/19 08:00:03;;;;;;;1.05;1.02;;;;;;;7.45;65.65;103585.94;5181183;28;20258;-80
2022/03/19 08:02:34;;;;;;;0.38;0.38;;;;;;;7.37;66.90;103585.66;5181838;28;20048;-80
2022/03/19 08:05:11;;;;;;;0.45;0.45;;;;;;;7.44;65.15;103584.16;5193437;28;20079;-80
2022/03/19 08:07:44;;;;;;;0.55;0.55;;;;;;;7.47;65.21;103579.03;5181703;28;20098;-80
2022/03/19 08:10:15;;;;;;;0.50;0.50;;;;;;;7.58;65.00;103574.16;5192492;28;20065;-81
2022/03/19 08:12:47;;;;;;;1.55;0.73;;;;;;;7.52;65.84;103573.97;5166832;28;20064;-81
2022/03/19 08:15:18;;;;;;;1.00;1.00;;;;;;;7.56;65.43;103570.59;5180264;28;20033;-81
2022/03/19 08:17:54;;;;;;;0.30;0.30;;;;;;;7.66;65.44;103579.59;5182179;28;20065;-81
2022/03/19 08:20:26;;;;;;;1.25;1.23;;;;;;;7.69;66.17;103571.84;5163045;28;20052;-81
2022/03/19 08:22:56;;;;;;;0.90;0.90;;;;;;;7.74;65.39;103583.31;5183065;28;21179;-82
2022/03/19 08:25:27;;;;;;;1.45;0.88;;;;;;;7.84;64.92;103572.31;5206678;28;20482;-81
2022/03/19 08:27:59;;;;;;;0.80;0.80;;;;;;;7.92;64.90;103577.78;5162277;28;20049;-81
2022/03/19 08:30:32;;;;;;;1.27;1.17;;;;;;;7.84;65.16;103576.69;5185434;28;20034;-81
2022/03/19 08:33:03;;;;;;;0.70;0.70;;;;;;;7.91;65.85;103580.34;5160796;28;20057;-81
2022/03/19 08:35:36;;;;;;;0.45;0.45;;;;;;;7.90;66.09;103575.94;5197101;28;20402;-82
2022/03/19 08:40:57;;;;;;;1.02;1.02;;;;;;;8.00;65.13;103583.22;5217209;28;19920;-81
2022/03/19 08:43:27;;;;;;;1.83;1.73;;;;;;;8.13;65.12;103572.31;5175808;28;20426;-81
2022/03/19 08:45:59;;;;;;;0.55;0.55;;;;;;;8.09;65.70;103573.03;5181649;28;20034;-81
2022/03/19 08:48:29;;;;;;;0.52;0.52;;;;;;;8.07;65.66;103579.09;5196139;28;20064;-81
2022/03/19 08:51:39;;;;;;;1.40;1.20;;;;;;;8.23;63.50;103575.16;5166536;28;20061;-80
2022/03/19 08:53:53;;;;;;;0.45;0.45;;;;;;;8.18;63.19;103569.81;5195143;28;20045;-81
2022/03/19 08:56:24;;;;;;;0.88;0.88;;;;;;;8.23;62.42;103569.94;5174037;22;20030;-77
2022/03/19 08:58:54;;;;;;;0.43;0.43;;;;;;;8.25;62.54;103565.63;5193069;28;20046;-77
2022/03/19 09:01:25;;;;;;;1.02;1.02;;;;;;;8.34;62.03;103565.91;5188252;28;20440;-76
2022/03/19 09:03:56;;;;;;;0.55;0.55;;;;;;;8.47;61.63;103568.03;5182440;28;20493;-76
2022/03/19 09:06:26;;;;;;;0.47;0.47;;;;;;;8.45;61.86;103561.88;5186344;28;20057;-77
2022/03/19 09:09:02;;;;;;;0.52;0.52;;;;;;;8.44;61.51;103560.09;5183867;28;20593;-76
2022/03/19 09:11:35;;;;;;;0.30;0.30;;;;;;;8.54;61.16;103560.38;5190023;28;20037;-76
2022/03/19 09:14:07;;;;;;;0.73;0.73;;;;;;;8.63;61.43;103550.16;5182856;28;20041;-76
2022/03/19 09:16:38;;;;;;;0.30;0.30;;;;;;;8.63;61.20;103551.03;5195344;28;20276;-76
2022/03/19 09:19:08;;;;;;;0.70;0.70;;;;;;;8.69;61.17;103550.31;5204848;28;20056;-79
2022/03/19 09:21:39;;;;;;;1.50;1.40;;;;;;;8.76;60.93;103551.38;5195204;28;20161;-77
2022/03/19 09:24:10;;;;;;;0.65;0.65;;;;;;;8.75;60.75;103542.59;5174532;28;20045;-76
2022/03/19 09:26:40;;;;;;;0.68;0.68;;;;;;;8.80;61.26;103559.31;5192532;28;20048;-77
2022/03/19 09:29:14;;;;;;;0.75;0.65;;;;;;;9.04;60.09;103544.19;5178891;28;20319;-76
2022/03/19 09:31:45;;;;;;;0.80;0.80;;;;;;;8.91;60.02;103536.03;5207878;28;20123;-77
2022/03/19 09:34:15;;;;;;;0.40;0.40;;;;;;;8.96;60.20;103529.16;5204640;28;20137;-76
2022/03/19 09:36:46;;;;;;;0.45;0.45;;;;;;;9.04;59.95;103532.00;5185999;28;20566;-76
2022/03/19 09:39:17;;;;;;;0.93;0.70;;;;;;;9.13;59.80;103523.47;5199474;28;20057;-77
2022/03/19 09:41:47;;;;;;;0.40;0.40;;;;;;;9.22;58.29;103514.91;5188091;28;20129;-76
2022/03/19 09:44:19;;;;;;;1.10;0.75;;;;;;;9.21;58.27;103508.81;5197715;28;20132;-77
2022/03/19 09:46:49;;;;;;;0.45;0.45;;;;;;;9.22;58.40;103499.19;5188624;28;20029;-77
2022/03/19 09:49:20;;;;;;;1.25;1.17;;;;;;;9.20;58.03;103493.06;5180033;28;20404;-77
2022/03/19 09:51:55;;;;;;;0.98;0.98;;;;;;;9.39;57.77;103486.50;5205849;28;20481;-77
2022/03/19 09:54:26;;;;;;;1.55;0.95;;;;;;;9.68;53.92;103489.75;5183842;28;22485;-77
2022/03/19 09:56:57;;;;;;;0.28;0.28;;;;;;;9.52;53.43;103478.03;5182134;28;20038;-77
2022/03/19 09:59:28;;;;;;;0.22;0.22;;;;;;;9.54;53.74;103475.47;5184660;28;20060;-77
2022/03/19 10:01:58;;;;;;;0.30;0.30;;;;;;;9.86;50.81;103478.75;5207023;28;20029;-77
2022/03/19 10:04:30;;;;;;;0.40;0.40;;;;;;;9.68;53.20;103471.41;5182130;28;20136;-77
2022/03/19 10:09:50;;;;;;;2.13;1.60;;;;;;;9.89;50.96;103465.72;5185159;28;20049;-78
2022/03/19 10:12:23;;;;;;;1.58;1.02;;;;;;;10.04;50.00;103462.47;5191957;28;20437;-76
2022/03/19 10:14:55;;;;;;;0.70;0.70;;;;;;;10.10;49.17;103460.84;5181572;28;20111;-77
2022/03/19 10:17:27;;;;;;;0.32;0.32;;;;;;;10.02;49.87;103460.69;5204066;28;20030;-77
2022/03/19 10:20:09;;;;;;;0.40;0.40;;;;;;;10.04;50.94;103448.50;5167986;28;20044;-77
2022/03/19 10:22:42;;;;;;;2.05;1.85;;;;;;;10.32;49.32;103449.00;5191204;28;20068;-77
2022/03/19 10:25:17;;;;;;;0.50;0.50;;;;;;;10.23;49.03;103449.72;5190707;28;20335;-78
2022/03/19 10:27:51;;;;;;;0.73;0.73;;;;;;;10.19;49.12;103442.66;5201285;28;20092;-78
2022/03/19 10:30:22;;;;;;;0.40;0.40;;;;;;;10.28;49.19;103434.06;5185684;28;20037;-78
2022/03/19 10:32:55;;;;;;;0.30;0.30;;;;;;;10.23;49.12;103427.00;5209405;28;20460;-76
2022/03/19 10:35:41;;;;;;;0.57;0.57;;;;;;;10.38;48.00;103430.78;5191968;28;20030;-77
2022/03/19 10:38:22;;;;;;;0.47;0.47;;;;;;;10.49;46.72;103423.97;5199238;28;20052;-77
2022/03/19 10:40:53;;;;;;;0.88;0.88;;;;;;;10.68;43.85;103417.28;5203488;28;20049;-77
2022/03/19 10:43:24;;;;;;;0.30;0.30;;;;;;;10.57;44.21;103410.97;5193214;28;20044;-77
2022/03/19 10:45:55;;;;;;;0.85;0.85;;;;;;;10.69;46.90;103413.78;5192839;28;20037;-77
2022/03/19 10:48:27;;;;;;;0.30;0.30;;;;;;;10.69;46.26;103403.28;5187760;28;20037;-77
2022/03/19 10:50:58;;;;;;;0.50;0.50;;;;;;;10.77;46.87;103403.38;5197605;28;20516;-77
2022/03/19 10:53:28;;;;;;;0.32;0.32;;;;;;;10.88;44.92;103398.28;5161877;28;20052;-77
2022/03/19 10:56:03;;;;;;;1.25;1.20;;;;;;;10.76;45.37;103392.88;5185177;28;20030;-77
2022/03/19 10:58:33;;;;;;;0.85;0.85;;;;;;;10.87;43.69;103380.75;5186802;28;20042;-77
2022/03/19 11:01:07;;;;;;;0.80;0.45;;;;;;;10.85;44.48;103379.88;5209613;28;20136;-78
2022/03/19 11:03:38;;;;;;;;;;;;;;;10.82;44.14;103364.06;5209267;28;20106;-79
2022/03/19 11:06:10;;;;;;;1.25;1.15;;;;;;;11.14;40.70;103379.38;5193510;28;19973;-77
2022/03/19 11:08:46;;;;;;;0.40;0.40;;;;;;;11.00;39.82;103369.56;5185398;28;20041;-78
2022/03/19 11:11:22;;;;;;;0.50;0.50;;;;;;;11.21;37.79;103368.06;5212349;28;20021;-78
2022/03/19 11:13:57;;;;;;;0.30;0.30;;;;;;;11.09;41.53;103362.69;5182353;28;20042;-79
2022/03/19 11:16:36;;;;;;;0.43;0.43;;;;;;;11.11;38.56;103360.97;5197329;28;20029;-79
2022/03/19 11:19:08;;;;;;;0.40;0.40;;;;;;;11.30;39.69;103346.31;5199489;28;20126;-78
2022/03/19 11:21:40;;;;;;;0.35;0.35;;;;;;;11.26;40.40;103347.13;5190969;28;20052;-79
2022/03/19 11:24:26;;;;;;;0.32;0.32;;;;;;;11.37;39.89;103331.47;5199595;28;20038;-79
2022/03/19 11:26:58;;;;;;;0.50;0.50;;;;;;;11.48;35.69;103333.38;5205991;28;20056;-79
2022/03/19 11:29:29;;;;;;;2.22;0.70;;;;;;;11.69;36.53;103333.59;5185510;28;20050;-78
2022/03/19 11:32:01;;;;;;;0.30;0.30;;;;;;;11.60;34.67;103322.09;5200936;28;20497;-79
2022/03/19 11:34:47;;;;;;;0.30;0.30;;;;;;;11.65;36.77;103319.53;5187725;28;20643;-78
2022/03/19 11:37:17;;;;;;;0.65;0.65;;;;;;;11.77;35.04;103301.22;5195515;28;20552;-78
2022/03/19 11:40:28;;;;;;;0.30;0.30;;;;;;;11.90;33.88;103302.22;5197073;28;20049;-78
2022/03/19 11:43:04;;;;;;;0.75;0.75;;;;;;;11.89;35.55;103291.69;5190841;28;20045;-78
2022/03/19 11:46:00;;;;;;;0.25;0.25;;;;;;;11.89;33.20;103279.41;5184390;28;20029;-77
2022/03/19 11:48:48;;;;;;;0.20;0.20;;;;;;;12.02;31.64;103280.41;5185707;28;20398;-78
2022/03/19 11:51:24;;;;;;;0.75;0.63;;;;;;;12.01;33.93;103280.41;5202275;28;20036;-77
2022/03/19 11:54:15;;;;;;;0.40;0.40;;;;;;;12.08;33.75;103274.31;5191957;28;20049;-77
2022/03/19 11:57:05;;;;;;;3.38;0.43;;;;;;;12.11;33.85;103264.69;5170201;28;20021;-77
2022/03/19 11:59:46;;;;;;;0.63;0.63;;;;;;;12.27;32.32;103265.66;5180483;28;20456;-78
2022/03/19 12:02:18;;;;;;;0.73;0.73;;;;;;;12.36;33.65;103248.16;5188918;28;20042;-78
2022/03/19 12:04:53;;;;;;;1.42;1.33;;;;;;;12.48;35.97;103245.63;5205220;28;20103;-78
2022/03/19 12:07:47;;;;;;;0.70;0.70;;;;;;;12.43;36.53;103255.25;5202593;28;20120;-77
2022/03/19 12:10:20;;;;;;;0.50;0.50;;;;;;;12.44;35.11;103230.66;5167839;28;20041;-77
2022/03/19 12:12:51;;;;;;;;;;;;;;;12.50;36.22;103235.97;5183996;28;20042;-77